sensor_id;sensor_type;location;lat;lon;timestamp;P1;durP1;ratioP1;P2;durP2;ratioP2
25984;SDS011;66753;53.848;10.658;2023-02-23T00:00:59;10.07;;;2.17;;
25984;SDS011;66753;53.848;10.658;2023-02-23T00:06:02;7.65;;;2.25;;
25984;SDS011;66753;53.848;10.658;2023-02-23T00:11:06;10.45;;;2.40;;
25984;SDS011;66753;53.848;10.658;2023-02-23T00:16:12;7.25;;;2.00;;
25984;SDS011;66753;53.848;10.658;2023-02-23T00:21:15;8.75;;;2.10;;
25984;SDS011;66753;53.848;10.658;2023-02-23T00:26:28;4.28;;;1.73;;
25984;SDS011;66753;53.848;10.658;2023-02-23T00:31:32;9.45;;;2.40;;
25984;SDS011;66753;53.848;10.658;2023-02-23T00:36:33;6.47;;;2.00;;
25984;SDS011;66753;53.848;10.658;2023-02-23T00:41:35;6.60;;;2.20;;
25984;SDS011;66753;53.848;10.658;2023-02-23T00:46:35;5.93;;;1.73;;
25984;SDS011;66753;53.848;10.658;2023-02-23T00:51:36;6.77;;;2.20;;
25984;SDS011;66753;53.848;10.658;2023-02-23T00:56:37;8.27;;;2.10;;
25984;SDS011;66753;53.848;10.658;2023-02-23T01:01:38;7.07;;;2.35;;
25984;SDS011;66753;53.848;10.658;2023-02-23T01:06:40;6.60;;;2.20;;
25984;SDS011;66753;53.848;10.658;2023-02-23T01:11:43;10.70;;;2.28;;
25984;SDS011;66753;53.848;10.658;2023-02-23T01:16:45;6.90;;;2.10;;
25984;SDS011;66753;53.848;10.658;2023-02-23T01:21:46;9.07;;;2.60;;
25984;SDS011;66753;53.848;10.658;2023-02-23T01:26:46;8.80;;;2.23;;
25984;SDS011;66753;53.848;10.658;2023-02-23T01:31:47;6.47;;;2.00;;
25984;SDS011;66753;53.848;10.658;2023-02-23T01:36:50;7.88;;;2.13;;
25984;SDS011;66753;53.848;10.658;2023-02-23T01:41:50;7.93;;;2.13;;
25984;SDS011;66753;53.848;10.658;2023-02-23T01:46:51;6.70;;;2.00;;
25984;SDS011;66753;53.848;10.658;2023-02-23T01:56:59;6.97;;;2.15;;
25984;SDS011;66753;53.848;10.658;2023-02-23T02:07:04;9.20;;;2.22;;
25984;SDS011;66753;53.848;10.658;2023-02-23T02:12:04;7.82;;;2.25;;
25984;SDS011;66753;53.848;10.658;2023-02-23T02:28:18;7.25;;;2.03;;
25984;SDS011;66753;53.848;10.658;2023-02-23T02:49:29;9.65;;;2.72;;
25984;SDS011;66753;53.848;10.658;2023-02-23T02:59:42;7.82;;;2.60;;
25984;SDS011;66753;53.848;10.658;2023-02-23T03:05:14;6.65;;;2.20;;
25984;SDS011;66753;53.848;10.658;2023-02-23T03:11:18;7.15;;;2.15;;
25984;SDS011;66753;53.848;10.658;2023-02-23T03:27:42;7.43;;;2.42;;
25984;SDS011;66753;53.848;10.658;2023-02-23T03:33:05;8.65;;;2.28;;
25984;SDS011;66753;53.848;10.658;2023-02-23T03:38:40;8.80;;;2.25;;
25984;SDS011;66753;53.848;10.658;2023-02-23T03:44:07;7.20;;;2.08;;
25984;SDS011;66753;53.848;10.658;2023-02-23T03:49:29;8.15;;;2.20;;
25984;SDS011;66753;53.848;10.658;2023-02-23T03:54:53;7.28;;;2.78;;
25984;SDS011;66753;53.848;10.658;2023-02-23T04:00:17;9.98;;;2.85;;
25984;SDS011;66753;53.848;10.658;2023-02-23T04:05:41;6.35;;;2.20;;
25984;SDS011;66753;53.848;10.658;2023-02-23T04:11:26;7.97;;;2.53;;
25984;SDS011;66753;53.848;10.658;2023-02-23T04:16:41;6.82;;;2.53;;
25984;SDS011;66753;53.848;10.658;2023-02-23T04:21:42;11.57;;;2.90;;
25984;SDS011;66753;53.848;10.658;2023-02-23T04:26:43;7.50;;;2.27;;
25984;SDS011;66753;53.848;10.658;2023-02-23T04:31:43;11.73;;;3.03;;
25984;SDS011;66753;53.848;10.658;2023-02-23T04:36:43;9.67;;;2.90;;
25984;SDS011;66753;53.848;10.658;2023-02-23T04:41:44;8.77;;;3.57;;
25984;SDS011;66753;53.848;10.658;2023-02-23T04:46:44;10.65;;;3.05;;
25984;SDS011;66753;53.848;10.658;2023-02-23T04:51:45;9.82;;;3.17;;
25984;SDS011;66753;53.848;10.658;2023-02-23T04:56:46;11.13;;;2.58;;
25984;SDS011;66753;53.848;10.658;2023-02-23T05:01:47;9.25;;;3.45;;
25984;SDS011;66753;53.848;10.658;2023-02-23T05:06:47;8.23;;;3.03;;
25984;SDS011;66753;53.848;10.658;2023-02-23T05:11:48;10.48;;;2.90;;
25984;SDS011;66753;53.848;10.658;2023-02-23T05:16:48;9.60;;;3.33;;
25984;SDS011;66753;53.848;10.658;2023-02-23T05:21:49;9.17;;;3.53;;
25984;SDS011;66753;53.848;10.658;2023-02-23T05:26:49;13.52;;;3.28;;
25984;SDS011;66753;53.848;10.658;2023-02-23T05:31:50;13.32;;;3.58;;
25984;SDS011;66753;53.848;10.658;2023-02-23T05:36:50;10.70;;;3.43;;
25984;SDS011;66753;53.848;10.658;2023-02-23T05:41:51;13.10;;;3.77;;
25984;SDS011;66753;53.848;10.658;2023-02-23T05:46:51;10.63;;;3.50;;
25984;SDS011;66753;53.848;10.658;2023-02-23T05:51:52;14.80;;;4.40;;
25984;SDS011;66753;53.848;10.658;2023-02-23T05:56:52;16.77;;;4.13;;
25984;SDS011;66753;53.848;10.658;2023-02-23T06:01:53;12.40;;;3.58;;
25984;SDS011;66753;53.848;10.658;2023-02-23T06:06:53;11.00;;;4.37;;
25984;SDS011;66753;53.848;10.658;2023-02-23T06:11:54;13.50;;;3.80;;
25984;SDS011;66753;53.848;10.658;2023-02-23T06:16:54;14.73;;;4.63;;
25984;SDS011;66753;53.848;10.658;2023-02-23T06:21:54;15.40;;;4.70;;
25984;SDS011;66753;53.848;10.658;2023-02-23T06:26:55;15.20;;;4.67;;
25984;SDS011;66753;53.848;10.658;2023-02-23T06:31:55;16.80;;;5.18;;
25984;SDS011;66753;53.848;10.658;2023-02-23T06:36:56;17.70;;;4.67;;
25984;SDS011;66753;53.848;10.658;2023-02-23T06:41:56;20.57;;;4.87;;
25984;SDS011;66753;53.848;10.658;2023-02-23T06:46:57;22.90;;;5.97;;
25984;SDS011;66753;53.848;10.658;2023-02-23T06:51:57;20.83;;;5.10;;
25984;SDS011;66753;53.848;10.658;2023-02-23T06:56:57;17.50;;;4.70;;
25984;SDS011;66753;53.848;10.658;2023-02-23T07:01:58;22.50;;;5.80;;
25984;SDS011;66753;53.848;10.658;2023-02-23T07:06:58;22.73;;;6.55;;
25984;SDS011;66753;53.848;10.658;2023-02-23T07:11:59;20.70;;;6.50;;
25984;SDS011;66753;53.848;10.658;2023-02-23T07:17:00;19.23;;;5.90;;
25984;SDS011;66753;53.848;10.658;2023-02-23T07:22:00;21.17;;;5.67;;
25984;SDS011;66753;53.848;10.658;2023-02-23T07:27:01;25.03;;;6.40;;
25984;SDS011;66753;53.848;10.658;2023-02-23T07:32:01;27.50;;;7.23;;
25984;SDS011;66753;53.848;10.658;2023-02-23T07:37:02;24.08;;;6.90;;
25984;SDS011;66753;53.848;10.658;2023-02-23T07:42:02;26.67;;;6.95;;
25984;SDS011;66753;53.848;10.658;2023-02-23T07:47:03;28.05;;;6.40;;
25984;SDS011;66753;53.848;10.658;2023-02-23T07:52:04;27.30;;;7.40;;
25984;SDS011;66753;53.848;10.658;2023-02-23T07:57:05;28.77;;;7.67;;
25984;SDS011;66753;53.848;10.658;2023-02-23T08:02:05;25.03;;;7.17;;
25984;SDS011;66753;53.848;10.658;2023-02-23T08:07:06;30.58;;;7.70;;
25984;SDS011;66753;53.848;10.658;2023-02-23T08:12:07;28.58;;;7.40;;
25984;SDS011;66753;53.848;10.658;2023-02-23T08:17:09;29.75;;;7.55;;
25984;SDS011;66753;53.848;10.658;2023-02-23T08:22:10;34.72;;;8.68;;
25984;SDS011;66753;53.848;10.658;2023-02-23T08:27:10;26.70;;;8.02;;
25984;SDS011;66753;53.848;10.658;2023-02-23T08:32:12;32.53;;;9.10;;
25984;SDS011;66753;53.848;10.658;2023-02-23T08:37:12;30.83;;;7.75;;
25984;SDS011;66753;53.848;10.658;2023-02-23T08:42:13;34.30;;;10.07;;
25984;SDS011;66753;53.848;10.658;2023-02-23T08:47:14;31.02;;;9.27;;
25984;SDS011;66753;53.848;10.658;2023-02-23T08:52:15;38.28;;;9.30;;
25984;SDS011;66753;53.848;10.658;2023-02-23T08:57:16;35.92;;;8.95;;
25984;SDS011;66753;53.848;10.658;2023-02-23T09:02:18;32.67;;;10.05;;
25984;SDS011;66753;53.848;10.658;2023-02-23T09:07:19;35.70;;;9.67;;
25984;SDS011;66753;53.848;10.658;2023-02-23T09:12:24;44.60;;;10.50;;
25984;SDS011;66753;53.848;10.658;2023-02-23T09:17:25;40.77;;;11.17;;
25984;SDS011;66753;53.848;10.658;2023-02-23T09:22:25;42.40;;;12.00;;
25984;SDS011;66753;53.848;10.658;2023-02-23T09:27:26;35.23;;;11.83;;
25984;SDS011;66753;53.848;10.658;2023-02-23T09:32:26;42.37;;;11.20;;
25984;SDS011;66753;53.848;10.658;2023-02-23T09:37:27;42.53;;;12.13;;
25984;SDS011;66753;53.848;10.658;2023-02-23T09:42:50;37.37;;;12.13;;
25984;SDS011;66753;53.848;10.658;2023-02-23T09:53:04;32.70;;;12.00;;
25984;SDS011;66753;53.848;10.658;2023-02-23T09:58:16;31.23;;;12.02;;
25984;SDS011;66753;53.848;10.658;2023-02-23T10:03:32;27.58;;;11.02;;
25984;SDS011;66753;53.848;10.658;2023-02-23T10:14:06;29.55;;;11.30;;
25984;SDS011;66753;53.848;10.658;2023-02-23T10:19:53;24.67;;;9.30;;
25984;SDS011;66753;53.848;10.658;2023-02-23T10:25:09;26.05;;;10.15;;
25984;SDS011;66753;53.848;10.658;2023-02-23T10:35:20;23.98;;;9.30;;
25984;SDS011;66753;53.848;10.658;2023-02-23T10:40:23;24.15;;;9.70;;
25984;SDS011;66753;53.848;10.658;2023-02-23T10:45:27;25.48;;;8.63;;
25984;SDS011;66753;53.848;10.658;2023-02-23T10:50:29;31.70;;;12.07;;
25984;SDS011;66753;53.848;10.658;2023-02-23T10:55:31;33.38;;;12.82;;
25984;SDS011;66753;53.848;10.658;2023-02-23T11:00:33;40.97;;;14.43;;
25984;SDS011;66753;53.848;10.658;2023-02-23T11:05:44;45.35;;;15.18;;
25984;SDS011;66753;53.848;10.658;2023-02-23T11:10:54;52.80;;;16.02;;
25984;SDS011;66753;53.848;10.658;2023-02-23T11:16:08;53.78;;;16.80;;
25984;SDS011;66753;53.848;10.658;2023-02-23T11:21:12;56.10;;;16.85;;
25984;SDS011;66753;53.848;10.658;2023-02-23T11:31:24;51.15;;;16.10;;
25984;SDS011;66753;53.848;10.658;2023-02-23T11:36:33;46.75;;;15.73;;
25984;SDS011;66753;53.848;10.658;2023-02-23T11:41:35;57.22;;;16.75;;
25984;SDS011;66753;53.848;10.658;2023-02-23T11:46:36;41.38;;;13.93;;
25984;SDS011;66753;53.848;10.658;2023-02-23T11:51:38;56.33;;;17.00;;
25984;SDS011;66753;53.848;10.658;2023-02-23T11:56:46;47.97;;;14.45;;
25984;SDS011;66753;53.848;10.658;2023-02-23T12:12:28;53.33;;;16.30;;
25984;SDS011;66753;53.848;10.658;2023-02-23T12:17:33;53.55;;;15.57;;
25984;SDS011;66753;53.848;10.658;2023-02-23T12:22:42;55.75;;;16.25;;
25984;SDS011;66753;53.848;10.658;2023-02-23T12:27:52;51.30;;;16.92;;
25984;SDS011;66753;53.848;10.658;2023-02-23T12:38:09;53.65;;;15.68;;
25984;SDS011;66753;53.848;10.658;2023-02-23T12:43:35;59.50;;;16.35;;
25984;SDS011;66753;53.848;10.658;2023-02-23T12:54:07;52.30;;;16.45;;
25984;SDS011;66753;53.848;10.658;2023-02-23T13:10:19;50.42;;;15.98;;
25984;SDS011;66753;53.848;10.658;2023-02-23T13:15:36;51.28;;;15.20;;
25984;SDS011;66753;53.848;10.658;2023-02-23T13:32:22;46.80;;;14.73;;
25984;SDS011;66753;53.848;10.658;2023-02-23T13:37:26;44.13;;;14.73;;
25984;SDS011;66753;53.848;10.658;2023-02-23T13:47:55;50.75;;;16.65;;
25984;SDS011;66753;53.848;10.658;2023-02-23T13:53:03;41.10;;;13.52;;
25984;SDS011;66753;53.848;10.658;2023-02-23T13:58:11;44.63;;;14.73;;
25984;SDS011;66753;53.848;10.658;2023-02-23T14:03:25;43.22;;;13.27;;
25984;SDS011;66753;53.848;10.658;2023-02-23T14:08:38;39.05;;;13.45;;
25984;SDS011;66753;53.848;10.658;2023-02-23T14:13:44;40.38;;;12.25;;
25984;SDS011;66753;53.848;10.658;2023-02-23T14:19:11;40.30;;;13.85;;
25984;SDS011;66753;53.848;10.658;2023-02-23T14:24:30;33.13;;;12.27;;
25984;SDS011;66753;53.848;10.658;2023-02-23T14:29:36;33.17;;;11.38;;
25984;SDS011;66753;53.848;10.658;2023-02-23T14:40:44;39.97;;;12.77;;
25984;SDS011;66753;53.848;10.658;2023-02-23T14:45:31;36.67;;;11.77;;
25984;SDS011;66753;53.848;10.658;2023-02-23T14:50:37;35.75;;;12.02;;
25984;SDS011;66753;53.848;10.658;2023-02-23T14:55:39;32.72;;;11.15;;
25984;SDS011;66753;53.848;10.658;2023-02-23T15:00:42;35.13;;;12.75;;
25984;SDS011;66753;53.848;10.658;2023-02-23T15:15:47;31.90;;;10.60;;
25984;SDS011;66753;53.848;10.658;2023-02-23T15:20:48;29.48;;;9.50;;
25984;SDS011;66753;53.848;10.658;2023-02-23T15:25:49;27.55;;;9.95;;
25984;SDS011;66753;53.848;10.658;2023-02-23T15:30:52;31.27;;;10.35;;
25984;SDS011;66753;53.848;10.658;2023-02-23T15:40:56;22.60;;;8.50;;
25984;SDS011;66753;53.848;10.658;2023-02-23T15:46:00;27.23;;;9.13;;
25984;SDS011;66753;53.848;10.658;2023-02-23T15:51:03;28.40;;;9.35;;
25984;SDS011;66753;53.848;10.658;2023-02-23T15:56:13;22.73;;;8.43;;
25984;SDS011;66753;53.848;10.658;2023-02-23T16:06:25;23.02;;;7.85;;
25984;SDS011;66753;53.848;10.658;2023-02-23T16:11:32;24.35;;;7.85;;
25984;SDS011;66753;53.848;10.658;2023-02-23T16:16:35;23.30;;;7.35;;
25984;SDS011;66753;53.848;10.658;2023-02-23T16:21:35;22.38;;;7.30;;
25984;SDS011;66753;53.848;10.658;2023-02-23T16:26:39;20.23;;;7.05;;
25984;SDS011;66753;53.848;10.658;2023-02-23T16:31:52;19.67;;;6.07;;
25984;SDS011;66753;53.848;10.658;2023-02-23T16:36:58;24.33;;;6.30;;
25984;SDS011;66753;53.848;10.658;2023-02-23T16:42:27;13.75;;;4.60;;
25984;SDS011;66753;53.848;10.658;2023-02-23T16:52:39;9.52;;;3.17;;
25984;SDS011;66753;53.848;10.658;2023-02-23T16:57:41;11.63;;;3.08;;
25984;SDS011;66753;53.848;10.658;2023-02-23T17:02:45;9.93;;;3.33;;
25984;SDS011;66753;53.848;10.658;2023-02-23T17:07:46;11.23;;;3.08;;
25984;SDS011;66753;53.848;10.658;2023-02-23T17:12:47;11.40;;;3.65;;
25984;SDS011;66753;53.848;10.658;2023-02-23T17:17:48;8.30;;;2.60;;
25984;SDS011;66753;53.848;10.658;2023-02-23T17:22:48;14.40;;;3.45;;
25984;SDS011;66753;53.848;10.658;2023-02-23T17:27:49;7.45;;;2.13;;
25984;SDS011;66753;53.848;10.658;2023-02-23T17:32:50;10.05;;;2.47;;
25984;SDS011;66753;53.848;10.658;2023-02-23T17:37:52;8.90;;;1.80;;
25984;SDS011;66753;53.848;10.658;2023-02-23T17:43:04;13.93;;;3.20;;
25984;SDS011;66753;53.848;10.658;2023-02-23T17:48:08;10.75;;;1.67;;
25984;SDS011;66753;53.848;10.658;2023-02-23T17:53:09;8.23;;;1.77;;
25984;SDS011;66753;53.848;10.658;2023-02-23T17:58:09;11.23;;;1.60;;
25984;SDS011;66753;53.848;10.658;2023-02-23T18:03:13;7.35;;;1.55;;
25984;SDS011;66753;53.848;10.658;2023-02-23T18:08:14;6.95;;;1.67;;
25984;SDS011;66753;53.848;10.658;2023-02-23T18:13:19;8.65;;;1.17;;
25984;SDS011;66753;53.848;10.658;2023-02-23T18:18:20;8.68;;;1.40;;
25984;SDS011;66753;53.848;10.658;2023-02-23T18:23:22;5.82;;;1.77;;
25984;SDS011;66753;53.848;10.658;2023-02-23T18:28:24;6.25;;;1.20;;
25984;SDS011;66753;53.848;10.658;2023-02-23T18:33:24;10.50;;;1.57;;
25984;SDS011;66753;53.848;10.658;2023-02-23T18:38:24;5.60;;;1.30;;
25984;SDS011;66753;53.848;10.658;2023-02-23T18:43:25;8.53;;;1.47;;
25984;SDS011;66753;53.848;10.658;2023-02-23T18:48:25;6.20;;;1.37;;
25984;SDS011;66753;53.848;10.658;2023-02-23T18:53:26;6.57;;;1.47;;
25984;SDS011;66753;53.848;10.658;2023-02-23T18:58:26;10.23;;;1.83;;
25984;SDS011;66753;53.848;10.658;2023-02-23T19:03:27;9.73;;;1.60;;
25984;SDS011;66753;53.848;10.658;2023-02-23T19:08:27;4.90;;;1.60;;
25984;SDS011;66753;53.848;10.658;2023-02-23T19:13:29;10.68;;;1.70;;
25984;SDS011;66753;53.848;10.658;2023-02-23T19:18:30;10.03;;;1.77;;
25984;SDS011;66753;53.848;10.658;2023-02-23T19:23:30;6.78;;;1.60;;
25984;SDS011;66753;53.848;10.658;2023-02-23T19:28:31;7.53;;;1.30;;
25984;SDS011;66753;53.848;10.658;2023-02-23T19:33:31;7.80;;;1.37;;
25984;SDS011;66753;53.848;10.658;2023-02-23T19:38:32;6.95;;;1.52;;
25984;SDS011;66753;53.848;10.658;2023-02-23T19:43:33;7.43;;;1.48;;
25984;SDS011;66753;53.848;10.658;2023-02-23T19:48:34;4.88;;;1.30;;
25984;SDS011;66753;53.848;10.658;2023-02-23T19:53:35;7.50;;;1.33;;
25984;SDS011;66753;53.848;10.658;2023-02-23T19:58:36;7.72;;;1.45;;
25984;SDS011;66753;53.848;10.658;2023-02-23T20:03:37;7.53;;;1.70;;
25984;SDS011;66753;53.848;10.658;2023-02-23T20:08:39;10.07;;;2.03;;
25984;SDS011;66753;53.848;10.658;2023-02-23T20:13:41;5.95;;;1.40;;
25984;SDS011;66753;53.848;10.658;2023-02-23T20:18:41;8.93;;;1.53;;
25984;SDS011;66753;53.848;10.658;2023-02-23T20:23:43;10.60;;;1.42;;
25984;SDS011;66753;53.848;10.658;2023-02-23T20:28:44;5.68;;;1.13;;
25984;SDS011;66753;53.848;10.658;2023-02-23T20:33:45;6.68;;;2.05;;
25984;SDS011;66753;53.848;10.658;2023-02-23T20:38:49;7.85;;;1.30;;
25984;SDS011;66753;53.848;10.658;2023-02-23T20:43:51;7.90;;;1.70;;
25984;SDS011;66753;53.848;10.658;2023-02-23T20:48:51;6.33;;;1.30;;
25984;SDS011;66753;53.848;10.658;2023-02-23T20:53:51;9.57;;;1.40;;
25984;SDS011;66753;53.848;10.658;2023-02-23T20:58:52;7.60;;;1.43;;
25984;SDS011;66753;53.848;10.658;2023-02-23T21:03:53;9.27;;;1.38;;
25984;SDS011;66753;53.848;10.658;2023-02-23T21:08:55;5.15;;;1.20;;
25984;SDS011;66753;53.848;10.658;2023-02-23T21:14:01;9.15;;;1.70;;
25984;SDS011;66753;53.848;10.658;2023-02-23T21:19:05;7.28;;;1.65;;
25984;SDS011;66753;53.848;10.658;2023-02-23T21:24:05;6.10;;;1.63;;
25984;SDS011;66753;53.848;10.658;2023-02-23T21:29:07;8.32;;;1.98;;
25984;SDS011;66753;53.848;10.658;2023-02-23T21:34:11;10.80;;;1.60;;
25984;SDS011;66753;53.848;10.658;2023-02-23T21:39:14;6.15;;;1.20;;
25984;SDS011;66753;53.848;10.658;2023-02-23T21:44:14;4.60;;;0.80;;
25984;SDS011;66753;53.848;10.658;2023-02-23T21:49:15;2.53;;;1.20;;
25984;SDS011;66753;53.848;10.658;2023-02-23T21:54:15;4.07;;;0.90;;
25984;SDS011;66753;53.848;10.658;2023-02-23T21:59:17;3.05;;;0.60;;
25984;SDS011;66753;53.848;10.658;2023-02-23T22:04:19;4.55;;;1.33;;
25984;SDS011;66753;53.848;10.658;2023-02-23T22:09:19;5.57;;;1.00;;
25984;SDS011;66753;53.848;10.658;2023-02-23T22:14:20;3.43;;;0.73;;
25984;SDS011;66753;53.848;10.658;2023-02-23T22:19:21;2.22;;;0.65;;
25984;SDS011;66753;53.848;10.658;2023-02-23T22:24:21;4.33;;;0.97;;
25984;SDS011;66753;53.848;10.658;2023-02-23T22:29:23;4.83;;;0.77;;
25984;SDS011;66753;53.848;10.658;2023-02-23T22:34:25;4.32;;;1.00;;
25984;SDS011;66753;53.848;10.658;2023-02-23T22:39:25;6.67;;;1.13;;
25984;SDS011;66753;53.848;10.658;2023-02-23T22:44:25;4.77;;;1.10;;
25984;SDS011;66753;53.848;10.658;2023-02-23T22:49:26;5.40;;;0.90;;
25984;SDS011;66753;53.848;10.658;2023-02-23T22:54:27;5.03;;;0.67;;
25984;SDS011;66753;53.848;10.658;2023-02-23T22:59:27;6.23;;;1.00;;
25984;SDS011;66753;53.848;10.658;2023-02-23T23:04:29;4.35;;;0.60;;
25984;SDS011;66753;53.848;10.658;2023-02-23T23:09:29;5.00;;;0.83;;
25984;SDS011;66753;53.848;10.658;2023-02-23T23:14:30;7.43;;;1.07;;
25984;SDS011;66753;53.848;10.658;2023-02-23T23:19:31;3.25;;;0.95;;
25984;SDS011;66753;53.848;10.658;2023-02-23T23:24:38;2.28;;;0.80;;
25984;SDS011;66753;53.848;10.658;2023-02-23T23:29:45;5.97;;;1.17;;
25984;SDS011;66753;53.848;10.658;2023-02-23T23:34:47;8.88;;;0.88;;
25984;SDS011;66753;53.848;10.658;2023-02-23T23:39:48;3.17;;;1.13;;
25984;SDS011;66753;53.848;10.658;2023-02-23T23:44:58;6.13;;;0.90;;
25984;SDS011;66753;53.848;10.658;2023-02-23T23:49:58;5.43;;;0.60;;
25984;SDS011;66753;53.848;10.658;2023-02-23T23:54:59;5.10;;;1.57;;
